createdAt,value
2018-01-25T00:00:15.601Z,5.47
2018-01-25T00:02:43.067Z,5.23
2018-01-25T00:05:10.686Z,4.50
2018-01-25T00:07:38.166Z,4.50
2018-01-25T00:10:05.642Z,5.27
2018-01-25T00:12:33.107Z,5.40
2018-01-25T00:15:00.615Z,4.63
2018-01-25T00:17:28.079Z,4.70
2018-01-25T00:19:55.563Z,4.47
2018-01-25T00:22:23.015Z,4.07
2018-01-25T00:24:50.478Z,3.93
2018-01-25T00:27:18.184Z,3.07
2018-01-25T00:29:45.642Z,4.27
2018-01-25T00:32:13.135Z,2.40
2018-01-25T00:34:40.598Z,4.60
2018-01-25T00:37:08.055Z,3.70
2018-01-25T00:39:35.523Z,3.17
2018-01-25T00:42:02.986Z,2.47
2018-01-25T00:44:30.431Z,3.17
2018-01-25T00:46:57.934Z,2.70
2018-01-25T00:49:25.378Z,1.43
2018-01-25T00:51:52.858Z,2.07
2018-01-25T00:54:20.295Z,1.77
2018-01-25T00:56:47.757Z,1.67
2018-01-25T00:59:15.244Z,1.57
2018-01-25T01:01:42.726Z,1.60
2018-01-25T01:04:10.282Z,2.27
2018-01-25T01:06:37.739Z,2.07
2018-01-25T01:09:05.229Z,3.00
2018-01-25T01:11:32.685Z,1.73
2018-01-25T01:14:00.154Z,1.87
2018-01-25T01:16:27.602Z,1.67
2018-01-25T01:18:55.062Z,1.57
2018-01-25T01:21:22.511Z,1.30
2018-01-25T01:23:49.979Z,1.47
2018-01-25T01:26:17.442Z,2.90
2018-01-25T01:28:44.890Z,1.43
2018-01-25T01:31:12.346Z,1.30
2018-01-25T01:33:39.858Z,1.00
2018-01-25T01:36:07.328Z,3.57
2018-01-25T01:38:34.773Z,1.53
2018-01-25T01:41:02.227Z,1.07
2018-01-25T01:43:29.695Z,0.90
2018-01-25T01:45:57.143Z,1.20
2018-01-25T01:48:24.591Z,1.00
2018-01-25T01:50:52.036Z,2.00
2018-01-25T01:53:19.519Z,1.40
2018-01-25T01:55:46.994Z,1.77
2018-01-25T01:58:14.437Z,1.33
2018-01-25T02:00:41.938Z,1.30
2018-01-25T02:03:09.383Z,1.17
2018-01-25T02:05:36.834Z,2.90
2018-01-25T02:08:04.310Z,1.13
2018-01-25T02:10:31.780Z,4.80
2018-01-25T02:12:59.266Z,3.40
2018-01-25T02:15:26.742Z,2.30
2018-01-25T02:17:54.204Z,2.93
2018-01-25T02:20:21.757Z,3.40
2018-01-25T02:22:49.218Z,1.97
2018-01-25T02:25:16.733Z,1.17
2018-01-25T02:27:44.217Z,1.50
2018-01-25T02:30:11.696Z,1.73
2018-01-25T02:32:39.156Z,1.30
2018-01-25T02:35:06.616Z,1.80
2018-01-25T02:37:34.091Z,1.23
2018-01-25T02:40:01.562Z,1.27
2018-01-25T02:42:29.031Z,1.40
2018-01-25T02:44:56.566Z,1.47
2018-01-25T02:47:24.031Z,1.53
2018-01-25T02:49:51.501Z,6.23
2018-01-25T02:52:18.955Z,1.90
2018-01-25T02:54:46.439Z,2.10
2018-01-25T02:57:13.907Z,1.30
2018-01-25T02:59:41.366Z,4.93
2018-01-25T03:02:08.819Z,1.53
2018-01-25T03:04:36.265Z,1.47
2018-01-25T03:07:03.730Z,1.13
2018-01-25T03:09:31.210Z,1.23
2018-01-25T03:11:58.723Z,1.67
2018-01-25T03:14:26.253Z,0.70
2018-01-25T03:16:53.732Z,2.30
2018-01-25T03:19:21.179Z,1.93
2018-01-25T03:21:48.642Z,0.77
2018-01-25T03:24:16.095Z,1.30
2018-01-25T03:26:43.564Z,1.40
2018-01-25T03:29:11.106Z,3.07
2018-01-25T03:31:38.649Z,1.27
2018-01-25T03:34:06.097Z,2.00
2018-01-25T03:36:33.571Z,1.90
2018-01-25T03:39:01.028Z,1.67
2018-01-25T03:41:28.578Z,1.70
2018-01-25T03:43:56.136Z,1.00
2018-01-25T03:46:23.604Z,2.20
2018-01-25T03:48:51.061Z,1.67
2018-01-25T03:51:18.508Z,2.10
2018-01-25T03:53:45.975Z,1.20
2018-01-25T03:56:13.438Z,0.80
2018-01-25T03:58:40.895Z,2.83
2018-01-25T04:01:08.371Z,1.73
2018-01-25T04:03:35.817Z,1.77
2018-01-25T04:06:03.250Z,3.13
2018-01-25T04:08:30.720Z,2.60
2018-01-25T04:10:58.166Z,1.90
2018-01-25T04:13:25.705Z,2.10
2018-01-25T04:15:53.166Z,1.60
2018-01-25T04:18:20.690Z,1.43
2018-01-25T04:20:48.150Z,1.60
2018-01-25T04:23:15.610Z,2.07
2018-01-25T04:25:43.091Z,1.30
2018-01-25T04:28:10.551Z,1.43
2018-01-25T04:30:38.018Z,1.20
2018-01-25T04:33:05.503Z,2.20
2018-01-25T04:35:32.963Z,1.23
2018-01-25T04:38:00.463Z,1.50
2018-01-25T04:40:27.914Z,1.17
2018-01-25T04:42:55.386Z,1.53
2018-01-25T04:45:22.858Z,1.50
2018-01-25T04:47:50.297Z,3.70
2018-01-25T04:50:17.781Z,2.13
2018-01-25T04:52:45.230Z,1.37
2018-01-25T04:55:12.687Z,1.47
2018-01-25T04:57:40.716Z,1.90
2018-01-25T05:00:08.172Z,1.10
2018-01-25T05:02:35.614Z,0.90
2018-01-25T05:05:03.062Z,1.50
2018-01-25T05:07:30.523Z,1.87
2018-01-25T05:09:58.030Z,2.30
2018-01-25T05:12:25.494Z,1.00
2018-01-25T05:14:52.939Z,1.20
2018-01-25T05:17:30.332Z,0.93
2018-01-25T05:19:58.444Z,1.80
2018-01-25T05:22:25.894Z,1.43
2018-01-25T05:24:53.361Z,3.27
2018-01-25T05:27:20.811Z,1.97
2018-01-25T05:29:48.268Z,1.30
2018-01-25T05:32:15.717Z,3.80
2018-01-25T05:34:43.194Z,1.50
2018-01-25T05:37:10.659Z,1.80
2018-01-25T05:39:38.125Z,1.10
2018-01-25T05:42:05.590Z,11.00
2018-01-25T05:44:33.039Z,1.27
2018-01-25T05:47:00.537Z,0.90
2018-01-25T05:49:27.992Z,1.63
2018-01-25T05:51:55.472Z,1.80
2018-01-25T05:54:22.920Z,0.90
2018-01-25T05:56:50.386Z,1.30
2018-01-25T05:59:17.869Z,1.47
2018-01-25T06:01:45.333Z,1.10
2018-01-25T06:04:12.796Z,0.70
2018-01-25T06:06:40.248Z,1.10
2018-01-25T06:09:07.722Z,0.83
2018-01-25T06:11:35.258Z,1.33
2018-01-25T06:14:02.726Z,1.57
2018-01-25T06:16:30.176Z,1.10
2018-01-25T06:18:57.649Z,1.73
2018-01-25T06:21:25.111Z,1.87
2018-01-25T06:23:52.588Z,0.70
2018-01-25T06:26:20.031Z,0.93
2018-01-25T06:28:47.506Z,1.80
2018-01-25T06:31:14.961Z,1.80
2018-01-25T06:33:42.408Z,0.90
2018-01-25T06:36:09.921Z,2.30
2018-01-25T06:38:37.398Z,1.10
2018-01-25T06:41:04.842Z,0.80
2018-01-25T06:43:32.316Z,1.17
2018-01-25T06:45:59.768Z,1.30
2018-01-25T06:48:27.308Z,2.10
2018-01-25T06:50:54.770Z,1.60
2018-01-25T06:53:22.219Z,3.20
2018-01-25T06:55:49.693Z,0.80
2018-01-25T06:58:17.179Z,1.23
2018-01-25T07:00:44.642Z,3.90
2018-01-25T07:03:12.094Z,2.37
2018-01-25T07:05:39.556Z,4.27
2018-01-25T07:08:07.049Z,2.97
2018-01-25T07:10:34.535Z,4.70
2018-01-25T07:13:02.006Z,1.17
2018-01-25T07:15:29.447Z,1.37
2018-01-25T07:17:56.940Z,0.90
2018-01-25T07:20:24.394Z,1.10
2018-01-25T07:22:51.849Z,1.23
2018-01-25T07:25:19.325Z,4.97
2018-01-25T07:27:46.805Z,1.37
2018-01-25T07:30:14.268Z,0.90
2018-01-25T07:32:41.711Z,2.43
2018-01-25T07:35:09.205Z,2.47
2018-01-25T07:37:36.664Z,2.43
2018-01-25T07:40:04.144Z,1.13
2018-01-25T07:42:31.619Z,1.40
2018-01-25T07:44:59.075Z,2.60
2018-01-25T07:47:26.533Z,1.37
2018-01-25T07:49:53.975Z,1.20
2018-01-25T07:52:21.473Z,3.80
2018-01-25T07:54:48.923Z,2.73
2018-01-25T07:57:27.234Z,2.70
2018-01-25T07:59:54.698Z,3.03
2018-01-25T08:02:27.858Z,0.83
2018-01-25T08:04:55.325Z,1.97
2018-01-25T08:07:22.780Z,1.37
2018-01-25T08:09:50.250Z,1.73
2018-01-25T08:12:17.699Z,1.47
2018-01-25T08:14:45.159Z,1.47
2018-01-25T08:17:12.701Z,3.13
2018-01-25T08:19:40.208Z,1.27
2018-01-25T08:22:09.058Z,1.80
2018-01-25T08:24:36.513Z,1.90
2018-01-25T08:27:03.967Z,6.30
2018-01-25T08:29:31.429Z,9.83
2018-01-25T08:31:58.879Z,11.77
2018-01-25T08:34:26.339Z,18.30
2018-01-25T08:36:53.796Z,9.50
2018-01-25T08:39:21.269Z,5.53
2018-01-25T08:41:48.771Z,3.10
2018-01-25T08:44:17.157Z,2.70
2018-01-25T08:46:44.599Z,2.30
2018-01-25T08:49:12.068Z,3.37
2018-01-25T08:51:39.515Z,2.30
2018-01-25T08:54:06.979Z,2.70
2018-01-25T08:56:34.434Z,3.47
2018-01-25T08:59:01.892Z,3.07
2018-01-25T09:01:29.348Z,4.33
2018-01-25T09:03:56.839Z,1.67
2018-01-25T09:06:24.303Z,3.67
2018-01-25T09:08:51.775Z,3.43
2018-01-25T09:11:19.242Z,2.37
2018-01-25T09:13:46.699Z,3.30
2018-01-25T09:16:14.143Z,3.87
2018-01-25T09:18:41.638Z,3.13
2018-01-25T09:21:09.083Z,20.10
2018-01-25T09:23:36.596Z,54.53
2018-01-25T09:26:04.076Z,21.60
2018-01-25T09:28:31.538Z,12.17
2018-01-25T09:30:59.008Z,10.40
2018-01-25T09:33:26.451Z,8.17
2018-01-25T09:35:53.912Z,2.67
2018-01-25T09:38:21.379Z,2.43
2018-01-25T09:40:48.851Z,3.00
2018-01-25T09:43:16.341Z,1.73
2018-01-25T09:45:43.862Z,1.47
2018-01-25T09:48:11.272Z,1.60
2018-01-25T09:50:38.744Z,2.00
2018-01-25T09:53:06.198Z,2.00
2018-01-25T09:55:33.643Z,1.50
2018-01-25T09:58:01.111Z,1.33
2018-01-25T10:00:28.555Z,2.23
2018-01-25T10:02:56.029Z,2.40
2018-01-25T10:05:23.508Z,10.20
2018-01-25T10:07:50.977Z,11.50
2018-01-25T10:10:18.519Z,44.70
2018-01-25T10:12:45.970Z,23.00
2018-01-25T10:15:13.428Z,20.60
2018-01-25T10:17:40.888Z,7.27
2018-01-25T10:20:08.348Z,6.10
2018-01-25T10:22:35.830Z,1.80
2018-01-25T10:25:03.303Z,1.50
2018-01-25T10:27:30.747Z,2.00
2018-01-25T10:29:58.270Z,1.80
2018-01-25T10:32:25.722Z,7.27
2018-01-25T10:34:53.182Z,2.43
2018-01-25T10:37:20.658Z,1.60
2018-01-25T10:39:48.123Z,1.87
2018-01-25T10:42:15.583Z,4.47
2018-01-25T10:44:43.032Z,2.57
2018-01-25T10:47:10.502Z,10.83
2018-01-25T10:49:37.954Z,6.30
2018-01-25T10:52:05.445Z,3.87
2018-01-25T10:54:32.902Z,1.33
2018-01-25T10:57:00.359Z,6.87
2018-01-25T10:59:27.861Z,14.80
2018-01-25T11:02:00.840Z,16.57
2018-01-25T11:04:28.319Z,5.83
2018-01-25T11:06:55.775Z,3.00
2018-01-25T11:09:23.218Z,7.30
2018-01-25T11:11:50.691Z,10.23
2018-01-25T11:14:18.138Z,1.47
2018-01-25T11:16:45.623Z,2.27
2018-01-25T11:19:13.079Z,2.00
2018-01-25T11:21:40.558Z,2.53
2018-01-25T11:24:08.007Z,1.20
2018-01-25T11:26:35.469Z,2.30
2018-01-25T11:29:02.945Z,3.33
2018-01-25T11:31:30.408Z,1.63
2018-01-25T11:33:57.876Z,5.40
2018-01-25T11:36:25.342Z,31.53
2018-01-25T11:38:52.821Z,15.87
2018-01-25T11:41:20.285Z,8.77
2018-01-25T11:43:47.731Z,2.83
2018-01-25T11:46:15.192Z,4.83
2018-01-25T11:48:42.649Z,1.60
2018-01-25T11:51:10.117Z,1.20
2018-01-25T11:53:37.617Z,1.67
2018-01-25T11:56:05.070Z,1.33
2018-01-25T11:58:32.552Z,0.97
2018-01-25T12:01:00.008Z,1.10
2018-01-25T12:03:27.480Z,1.03
2018-01-25T12:05:54.991Z,1.77
2018-01-25T12:08:22.451Z,1.93
2018-01-25T12:10:49.914Z,7.20
2018-01-25T12:13:17.362Z,1.73
2018-01-25T12:15:44.825Z,1.37
2018-01-25T12:18:12.301Z,1.60
2018-01-25T12:20:39.766Z,2.80
2018-01-25T12:23:07.226Z,3.17
2018-01-25T12:25:34.713Z,2.00
2018-01-25T12:28:02.167Z,1.23
2018-01-25T12:30:29.633Z,1.40
2018-01-25T12:32:57.098Z,4.53
2018-01-25T12:35:24.554Z,1.20
2018-01-25T12:37:52.027Z,1.57
2018-01-25T12:40:19.475Z,1.03
2018-01-25T12:42:46.943Z,3.83
2018-01-25T12:45:14.404Z,1.60
2018-01-25T12:47:41.897Z,0.80
2018-01-25T12:50:09.349Z,1.23
2018-01-25T12:52:36.809Z,0.90
2018-01-25T12:55:04.259Z,2.90
2018-01-25T12:57:31.715Z,2.07
2018-01-25T12:59:59.454Z,2.13
2018-01-25T13:02:26.941Z,1.50
2018-01-25T13:04:54.458Z,2.47
2018-01-25T13:07:21.915Z,5.73
2018-01-25T13:09:49.391Z,4.47
2018-01-25T13:12:16.844Z,5.00
2018-01-25T13:14:44.305Z,5.00
2018-01-25T13:17:11.771Z,5.30
2018-01-25T13:19:39.227Z,2.47
2018-01-25T13:22:06.752Z,4.10
2018-01-25T13:24:34.239Z,2.13
2018-01-25T13:27:01.707Z,2.00
2018-01-25T13:29:29.158Z,2.00
2018-01-25T13:31:56.635Z,4.10
2018-01-25T13:34:24.174Z,2.90
2018-01-25T13:36:51.623Z,3.23
2018-01-25T13:39:19.092Z,1.80
2018-01-25T13:41:46.538Z,1.17
2018-01-25T13:44:14.036Z,1.30
2018-01-25T13:46:41.504Z,5.47
2018-01-25T13:49:09.718Z,6.13
2018-01-25T13:51:37.179Z,3.73
2018-01-25T13:54:04.642Z,1.43
2018-01-25T13:56:32.111Z,2.40
2018-01-25T13:58:59.561Z,1.53
2018-01-25T14:01:27.017Z,1.57
2018-01-25T14:03:54.498Z,3.60
2018-01-25T14:06:21.960Z,1.20
2018-01-25T14:08:49.449Z,2.50
2018-01-25T14:11:16.911Z,3.53
2018-01-25T14:13:44.403Z,3.73
2018-01-25T14:16:11.847Z,1.10
2018-01-25T14:18:39.312Z,2.17
2018-01-25T14:21:06.782Z,4.33
2018-01-25T14:23:34.231Z,2.93
2018-01-25T14:26:01.792Z,12.63
2018-01-25T14:28:29.290Z,1.03
2018-01-25T14:30:56.816Z,3.33
2018-01-25T14:33:24.299Z,3.47
2018-01-25T14:35:51.768Z,2.10
2018-01-25T14:38:19.260Z,1.73
2018-01-25T14:40:46.712Z,1.53
2018-01-25T14:43:14.221Z,1.37
2018-01-25T14:45:41.695Z,1.83
2018-01-25T14:48:09.143Z,1.83
2018-01-25T14:50:36.606Z,3.30
2018-01-25T14:53:04.064Z,2.93
2018-01-25T14:55:31.592Z,1.93
2018-01-25T14:57:59.051Z,4.30
2018-01-25T15:00:26.518Z,7.10
2018-01-25T15:02:53.982Z,1.53
2018-01-25T15:05:21.431Z,2.40
2018-01-25T15:07:48.898Z,3.47
2018-01-25T15:10:16.378Z,3.00
2018-01-25T15:12:43.834Z,4.20
2018-01-25T15:15:11.334Z,3.23
2018-01-25T15:17:38.815Z,3.10
2018-01-25T15:20:06.358Z,2.20
2018-01-25T15:22:33.803Z,7.53
2018-01-25T15:25:07.002Z,2.00
2018-01-25T15:27:34.457Z,2.50
2018-01-25T15:30:01.946Z,1.50
2018-01-25T15:32:29.401Z,2.03
2018-01-25T15:34:56.862Z,2.90
2018-01-25T15:37:24.324Z,4.23
2018-01-25T15:39:51.821Z,1.37
2018-01-25T15:42:19.299Z,2.93
2018-01-25T15:44:46.766Z,7.73
2018-01-25T15:47:14.224Z,16.20
2018-01-25T15:49:41.720Z,18.00
2018-01-25T15:52:09.213Z,15.10
2018-01-25T15:54:36.721Z,12.47
2018-01-25T15:57:04.157Z,7.20
2018-01-25T15:59:31.788Z,12.23
2018-01-25T16:01:59.293Z,5.60
2018-01-25T16:04:26.762Z,8.70
2018-01-25T16:06:54.219Z,9.57
2018-01-25T16:09:21.691Z,7.53
2018-01-25T16:11:49.147Z,10.37
2018-01-25T16:14:16.641Z,9.37
2018-01-25T16:16:44.119Z,3.73
2018-01-25T16:19:11.592Z,2.53
2018-01-25T16:21:39.044Z,6.30
2018-01-25T16:24:06.512Z,1.77
2018-01-25T16:26:34.020Z,2.23
2018-01-25T16:29:01.472Z,3.37
2018-01-25T16:31:28.952Z,3.70
2018-01-25T16:33:56.396Z,2.33
2018-01-25T16:36:23.862Z,3.27
2018-01-25T16:38:51.355Z,5.97
2018-01-25T16:41:18.813Z,7.33
2018-01-25T16:43:46.299Z,5.70
2018-01-25T16:46:13.752Z,2.97
2018-01-25T16:48:41.231Z,2.78
2018-01-25T16:51:08.690Z,4.40
2018-01-25T16:53:36.177Z,10.80
2018-01-25T16:56:03.674Z,19.20
2018-01-25T16:58:31.124Z,18.27
2018-01-25T17:00:58.605Z,5.80
2018-01-25T17:03:26.066Z,7.93
2018-01-25T17:05:53.544Z,5.57
2018-01-25T17:08:21.040Z,5.03
2018-01-25T17:10:48.520Z,11.13
2018-01-25T17:13:16.009Z,9.17
2018-01-25T17:15:43.526Z,10.03
2018-01-25T17:18:10.992Z,5.90
2018-01-25T17:20:38.438Z,11.40
2018-01-25T17:23:05.939Z,3.43
2018-01-25T17:25:33.402Z,8.97
2018-01-25T17:28:00.869Z,10.77
2018-01-25T17:30:28.337Z,5.93
2018-01-25T17:32:55.786Z,9.53
2018-01-25T17:35:23.255Z,6.67
2018-01-25T17:37:50.748Z,11.77
2018-01-25T17:40:18.195Z,7.10
2018-01-25T17:42:45.679Z,12.00
2018-01-25T17:45:13.157Z,10.43
2018-01-25T17:47:40.631Z,17.47
2018-01-25T17:50:08.091Z,11.57
2018-01-25T17:52:35.567Z,7.33
2018-01-25T17:55:03.060Z,8.47
2018-01-25T17:57:30.540Z,10.40
2018-01-25T17:59:57.991Z,7.93
2018-01-25T18:02:25.458Z,8.77
2018-01-25T18:04:52.915Z,6.63
2018-01-25T18:07:20.375Z,18.10
2018-01-25T18:09:47.848Z,10.40
2018-01-25T18:12:15.294Z,8.97
2018-01-25T18:14:42.750Z,4.23
2018-01-25T18:17:10.216Z,16.43
2018-01-25T18:19:37.724Z,15.23
2018-01-25T18:22:05.177Z,18.03
2018-01-25T18:24:32.648Z,19.60
2018-01-25T18:27:00.124Z,12.30
2018-01-25T18:29:27.582Z,21.07
2018-01-25T18:31:55.038Z,14.10
2018-01-25T18:34:22.502Z,16.97
2018-01-25T18:36:49.973Z,16.10
2018-01-25T18:39:17.477Z,13.97
2018-01-25T18:41:44.942Z,15.97
2018-01-25T18:44:12.451Z,11.63
2018-01-25T18:46:39.908Z,12.23
2018-01-25T18:49:07.398Z,17.00
2018-01-25T18:51:34.874Z,12.57
2018-01-25T18:54:02.386Z,12.13
2018-01-25T18:56:29.873Z,11.50
2018-01-25T18:58:57.332Z,9.37
2018-01-25T19:01:24.820Z,7.53
2018-01-25T19:03:52.276Z,9.90
2018-01-25T19:06:19.739Z,8.70
2018-01-25T19:08:47.180Z,7.27
2018-01-25T19:11:14.667Z,13.33
2018-01-25T19:13:42.135Z,8.40
2018-01-25T19:16:09.602Z,14.43
2018-01-25T19:18:37.058Z,9.40
2018-01-25T19:21:04.498Z,9.80
2018-01-25T19:23:31.961Z,9.70
2018-01-25T19:25:59.429Z,14.70
2018-01-25T19:28:26.903Z,13.93
2018-01-25T19:30:54.406Z,8.30
2018-01-25T19:33:21.848Z,13.07
2018-01-25T19:35:49.332Z,10.07
2018-01-25T19:38:16.779Z,8.40
2018-01-25T19:40:44.300Z,11.63
2018-01-25T19:43:11.751Z,9.30
2018-01-25T19:45:39.207Z,9.07
2018-01-25T19:48:06.682Z,9.33
2018-01-25T19:50:34.119Z,8.07
2018-01-25T19:53:01.644Z,7.40
2018-01-25T19:55:29.110Z,8.17
2018-01-25T19:57:56.557Z,9.97
2018-01-25T20:00:24.010Z,9.30
2018-01-25T20:02:51.466Z,12.60
2018-01-25T20:05:18.923Z,6.63
2018-01-25T20:07:47.838Z,7.10
2018-01-25T20:10:15.285Z,7.00
2018-01-25T20:12:42.818Z,15.00
2018-01-25T20:15:10.255Z,9.07
2018-01-25T20:17:37.731Z,12.47
2018-01-25T20:20:05.298Z,12.83
2018-01-25T20:22:32.794Z,10.90
2018-01-25T20:25:00.252Z,10.73
2018-01-25T20:27:27.727Z,15.40
2018-01-25T20:29:55.179Z,15.13
2018-01-25T20:32:22.714Z,13.00
2018-01-25T20:34:50.186Z,12.00
2018-01-25T20:37:17.663Z,14.80
2018-01-25T20:39:45.154Z,11.50
2018-01-25T20:42:12.674Z,10.53
2018-01-25T20:44:40.103Z,8.70
2018-01-25T20:47:07.561Z,14.90
2018-01-25T20:49:35.037Z,20.97
2018-01-25T20:52:02.494Z,18.57
2018-01-25T20:54:30.062Z,12.60
2018-01-25T20:56:57.490Z,11.97
2018-01-25T20:59:24.958Z,24.30
2018-01-25T21:01:52.415Z,14.47
2018-01-25T21:04:19.887Z,18.90
2018-01-25T21:06:47.354Z,15.70
2018-01-25T21:09:14.819Z,18.47
2018-01-25T21:11:42.273Z,13.03
2018-01-25T21:14:09.813Z,11.70
2018-01-25T21:16:37.235Z,7.90
2018-01-25T21:19:04.687Z,8.30
2018-01-25T21:21:32.146Z,9.30
2018-01-25T21:23:59.612Z,10.40
2018-01-25T21:26:27.058Z,7.03
2018-01-25T21:28:54.530Z,6.53
2018-01-25T21:31:21.990Z,11.73
2018-01-25T21:33:49.462Z,7.50
2018-01-25T21:36:16.914Z,10.33
2018-01-25T21:38:44.381Z,9.10
2018-01-25T21:41:11.850Z,8.33
2018-01-25T21:43:39.340Z,8.20
2018-01-25T21:46:06.810Z,6.43
2018-01-25T21:48:34.254Z,7.23
2018-01-25T21:51:01.726Z,6.73
2018-01-25T21:53:29.166Z,6.17
2018-01-25T21:55:56.671Z,11.47
2018-01-25T21:58:24.114Z,8.03
2018-01-25T22:00:51.586Z,5.50
2018-01-25T22:03:19.054Z,4.53
2018-01-25T22:05:46.499Z,6.30
2018-01-25T22:08:13.961Z,11.03
2018-01-25T22:10:41.405Z,5.33
2018-01-25T22:13:08.922Z,8.07
2018-01-25T22:15:36.426Z,4.23
2018-01-25T22:18:03.922Z,13.80
2018-01-25T22:20:31.421Z,8.13
2018-01-25T22:22:58.902Z,9.60
2018-01-25T22:25:26.377Z,5.97
2018-01-25T22:27:53.818Z,7.63
2018-01-25T22:30:21.310Z,4.93
2018-01-25T22:32:48.770Z,6.60
2018-01-25T22:35:16.261Z,4.20
2018-01-25T22:37:43.889Z,6.60
2018-01-25T22:40:11.354Z,6.43
2018-01-25T22:42:38.819Z,7.47
2018-01-25T22:45:06.365Z,9.70
2018-01-25T22:47:33.889Z,7.70
2018-01-25T22:50:01.524Z,5.93
2018-01-25T22:52:29.019Z,8.50
2018-01-25T22:54:56.516Z,4.20
2018-01-25T22:57:24.081Z,5.33
2018-01-25T22:59:51.547Z,6.13
2018-01-25T23:02:19.136Z,4.87
2018-01-25T23:04:46.741Z,5.30
2018-01-25T23:07:14.219Z,6.33
2018-01-25T23:09:41.715Z,6.90
2018-01-25T23:12:09.154Z,6.83
2018-01-25T23:14:36.627Z,6.57
2018-01-25T23:17:04.077Z,7.00
2018-01-25T23:19:31.540Z,9.20
2018-01-25T23:21:58.985Z,8.83
2018-01-25T23:24:26.474Z,7.72
2018-01-25T23:26:53.935Z,7.50
2018-01-25T23:29:21.394Z,7.63
2018-01-25T23:31:48.851Z,9.20
2018-01-25T23:34:16.306Z,9.23
2018-01-25T23:36:43.767Z,6.67
2018-01-25T23:39:11.235Z,11.60
2018-01-25T23:41:38.742Z,10.13
2018-01-25T23:44:06.207Z,6.53
2018-01-25T23:46:33.670Z,5.57
2018-01-25T23:49:01.130Z,5.40
2018-01-25T23:51:28.659Z,4.30
2018-01-25T23:53:56.112Z,6.30
2018-01-25T23:56:23.571Z,6.07
2018-01-25T23:58:51.041Z,8.43
